createdAt,value
2022-07-29T00:01:03.709Z,23.96
2022-07-29T00:03:30.287Z,23.98
2022-07-29T00:05:56.856Z,23.90
2022-07-29T00:08:23.391Z,23.90
2022-07-29T00:10:50.824Z,23.90
2022-07-29T00:13:17.332Z,23.86
2022-07-29T00:15:43.799Z,23.68
2022-07-29T00:18:10.249Z,23.56
2022-07-29T00:20:36.839Z,23.52
2022-07-29T00:23:03.274Z,23.62
2022-07-29T00:25:29.794Z,23.53
2022-07-29T00:27:57.223Z,23.56
2022-07-29T00:30:23.811Z,23.43
2022-07-29T00:32:50.271Z,23.37
2022-07-29T00:35:35.169Z,23.13
2022-07-29T00:38:02.148Z,23.13
2022-07-29T00:40:28.741Z,23.17
2022-07-29T00:42:55.199Z,23.24
2022-07-29T00:45:22.930Z,23.20
2022-07-29T00:47:50.147Z,23.32
2022-07-29T00:50:16.941Z,23.24
2022-07-29T00:52:44.172Z,23.20
2022-07-29T00:55:13.335Z,23.08
2022-07-29T00:57:41.709Z,22.72
2022-07-29T01:00:11.041Z,22.40
2022-07-29T01:02:38.006Z,22.33
2022-07-29T01:05:06.236Z,22.31
2022-07-29T01:07:35.874Z,22.30
2022-07-29T01:10:05.446Z,22.32
2022-07-29T01:12:34.678Z,22.33
2022-07-29T01:15:03.495Z,22.33
2022-07-29T01:17:37.943Z,22.23
2022-07-29T01:20:10.409Z,22.21
2022-07-29T01:23:01.285Z,21.98
2022-07-29T01:25:50.730Z,21.95
2022-07-29T01:28:43.802Z,21.97
2022-07-29T01:31:23.738Z,21.92
2022-07-29T01:34:02.679Z,21.86
2022-07-29T01:36:36.577Z,21.97
2022-07-29T01:39:33.314Z,22.07
2022-07-29T01:42:22.815Z,22.15
2022-07-29T01:45:01.319Z,22.24
2022-07-29T01:47:55.061Z,22.33
2022-07-29T01:50:27.178Z,22.31
2022-07-29T01:52:57.322Z,22.24
2022-07-29T01:55:28.620Z,22.12
2022-07-29T01:57:57.260Z,21.97
2022-07-29T02:00:24.729Z,21.88
2022-07-29T02:02:53.707Z,21.81
2022-07-29T02:05:22.654Z,21.76
2022-07-29T02:07:50.515Z,21.79
2022-07-29T02:10:20.479Z,21.67
2022-07-29T02:12:54.556Z,21.83
2022-07-29T02:15:21.915Z,21.77
2022-07-29T02:17:55.732Z,21.87
2022-07-29T02:20:24.682Z,21.89
2022-07-29T02:22:53.060Z,21.81
2022-07-29T02:25:21.958Z,21.61
2022-07-29T02:27:51.550Z,21.58
2022-07-29T02:30:20.616Z,21.57
2022-07-29T02:32:48.409Z,21.45
2022-07-29T02:35:17.123Z,21.56
2022-07-29T02:38:06.484Z,21.43
2022-07-29T02:40:35.861Z,21.45
2022-07-29T02:43:05.129Z,21.48
2022-07-29T02:45:33.377Z,21.39
2022-07-29T02:48:01.813Z,21.42
2022-07-29T02:50:35.529Z,21.53
2022-07-29T02:53:17.216Z,21.52
2022-07-29T02:56:10.121Z,21.58
2022-07-29T02:58:41.973Z,21.65
2022-07-29T03:01:21.416Z,21.69
2022-07-29T03:03:50.625Z,21.70
2022-07-29T03:06:28.199Z,21.69
2022-07-29T03:09:07.826Z,21.71
2022-07-29T03:11:42.337Z,21.65
2022-07-29T03:14:18.045Z,21.58
2022-07-29T03:16:45.168Z,21.50
2022-07-29T03:19:12.069Z,21.45
2022-07-29T03:21:38.517Z,21.33
2022-07-29T03:24:10.061Z,21.49
2022-07-29T03:26:37.168Z,21.54
2022-07-29T03:29:03.656Z,21.62
2022-07-29T03:31:30.194Z,21.68
2022-07-29T03:33:56.881Z,21.64
2022-07-29T03:36:23.322Z,21.48
2022-07-29T03:38:50.423Z,21.59
2022-07-29T03:41:22.316Z,21.65
2022-07-29T03:43:51.134Z,21.66
2022-07-29T03:46:18.884Z,21.69
2022-07-29T03:48:49.650Z,21.63
2022-07-29T03:51:16.377Z,21.55
2022-07-29T03:53:43.630Z,21.33
2022-07-29T03:56:11.242Z,21.38
2022-07-29T03:58:39.140Z,21.45
2022-07-29T04:01:05.889Z,21.43
2022-07-29T04:03:32.460Z,21.53
2022-07-29T04:06:07.472Z,21.66
2022-07-29T04:08:34.577Z,21.63
2022-07-29T04:11:02.389Z,21.61
2022-07-29T04:13:28.976Z,21.71
2022-07-29T04:15:55.482Z,21.74
2022-07-29T04:18:22.289Z,21.71
2022-07-29T04:20:48.773Z,21.61
2022-07-29T04:23:15.331Z,21.75
2022-07-29T04:25:42.913Z,21.70
2022-07-29T04:28:10.570Z,21.65
2022-07-29T04:30:38.127Z,21.68
2022-07-29T04:33:06.928Z,21.78
2022-07-29T04:35:38.901Z,21.80
2022-07-29T04:38:17.275Z,21.72
2022-07-29T04:40:43.986Z,21.60
2022-07-29T04:43:10.585Z,21.77
2022-07-29T04:45:39.113Z,21.69
2022-07-29T04:48:05.791Z,21.68
2022-07-29T04:50:32.794Z,21.58
2022-07-29T04:52:59.281Z,21.75
2022-07-29T04:55:26.308Z,21.77
2022-07-29T04:57:52.770Z,21.84
2022-07-29T05:00:19.250Z,21.87
2022-07-29T05:02:45.817Z,21.75
2022-07-29T05:05:12.413Z,21.87
2022-07-29T05:07:41.775Z,21.78
2022-07-29T05:10:08.916Z,21.87
2022-07-29T05:12:35.525Z,22.03
2022-07-29T05:15:01.957Z,21.96
2022-07-29T05:17:28.478Z,22.00
2022-07-29T05:19:54.926Z,22.04
2022-07-29T05:22:21.877Z,22.09
2022-07-29T05:24:48.627Z,22.14
2022-07-29T05:27:15.236Z,22.08
2022-07-29T05:29:44.298Z,22.04
2022-07-29T05:32:12.806Z,22.11
2022-07-29T05:34:50.877Z,22.05
2022-07-29T05:37:19.988Z,22.16
2022-07-29T05:39:49.090Z,22.18
2022-07-29T05:42:17.524Z,22.23
2022-07-29T05:44:44.017Z,22.26
2022-07-29T05:47:10.545Z,22.23
2022-07-29T05:49:37.037Z,22.36
2022-07-29T05:52:04.258Z,22.45
2022-07-29T05:54:30.787Z,22.32
2022-07-29T05:56:57.506Z,22.29
2022-07-29T05:59:28.339Z,22.46
2022-07-29T06:01:58.070Z,22.53
2022-07-29T06:04:24.769Z,22.72
2022-07-29T06:06:51.333Z,22.74
2022-07-29T06:09:17.788Z,22.90
2022-07-29T06:11:44.230Z,22.93
2022-07-29T06:14:10.721Z,23.11
2022-07-29T06:16:37.305Z,23.19
2022-07-29T06:19:03.852Z,23.02
2022-07-29T06:21:30.373Z,22.95
2022-07-29T06:23:56.930Z,22.87
2022-07-29T06:26:30.315Z,22.89
2022-07-29T06:28:58.130Z,23.03
2022-07-29T06:31:24.719Z,23.01
2022-07-29T06:33:51.528Z,23.18
2022-07-29T06:36:21.714Z,23.00
2022-07-29T06:38:51.360Z,22.99
2022-07-29T06:41:19.008Z,23.13
2022-07-29T06:43:52.586Z,23.26
2022-07-29T06:46:22.450Z,23.27
2022-07-29T06:48:49.747Z,23.11
2022-07-29T06:51:22.977Z,23.27
2022-07-29T06:54:00.140Z,23.25
2022-07-29T06:56:30.738Z,23.27
2022-07-29T06:58:57.182Z,23.20
2022-07-29T07:01:23.842Z,23.21
2022-07-29T07:03:50.404Z,23.23
2022-07-29T07:06:17.310Z,23.18
2022-07-29T07:08:43.804Z,23.03
2022-07-29T07:11:10.301Z,23.01
2022-07-29T07:13:37.010Z,22.85
2022-07-29T07:16:04.608Z,22.77
2022-07-29T07:18:31.580Z,22.99
2022-07-29T07:20:58.375Z,23.00
2022-07-29T07:23:24.964Z,23.06
2022-07-29T07:25:52.119Z,23.16
2022-07-29T07:28:19.580Z,23.05
2022-07-29T07:30:51.796Z,23.13
2022-07-29T07:33:18.327Z,23.10
2022-07-29T07:35:45.224Z,22.96
2022-07-29T07:38:11.794Z,23.16
2022-07-29T07:40:38.466Z,23.21
2022-07-29T07:43:05.039Z,23.26
2022-07-29T07:45:33.601Z,23.19
2022-07-29T07:48:00.161Z,23.14
2022-07-29T07:50:26.958Z,23.17
2022-07-29T07:52:56.073Z,23.10
2022-07-29T07:55:22.589Z,22.96
2022-07-29T07:57:49.089Z,23.06
2022-07-29T08:00:16.994Z,23.12
2022-07-29T08:02:44.066Z,23.22
2022-07-29T08:05:12.581Z,23.22
2022-07-29T08:07:39.537Z,23.41
2022-07-29T08:10:06.532Z,23.44
2022-07-29T08:12:33.088Z,23.56
2022-07-29T08:14:59.812Z,23.75
2022-07-29T08:17:27.521Z,24.05
2022-07-29T08:19:53.991Z,24.36
2022-07-29T08:22:20.697Z,24.57
2022-07-29T08:24:57.113Z,24.66
2022-07-29T08:30:11.244Z,25.35
2022-07-29T08:32:53.340Z,25.86
2022-07-29T08:35:21.931Z,27.02
2022-07-29T08:37:48.660Z,28.98
2022-07-29T08:40:15.460Z,28.03
2022-07-29T08:42:42.150Z,27.74
2022-07-29T08:45:09.414Z,27.56
2022-07-29T08:47:40.380Z,27.76
2022-07-29T08:50:09.107Z,28.66
2022-07-29T08:52:40.946Z,29.34
2022-07-29T08:55:09.829Z,28.32
2022-07-29T08:57:37.469Z,27.74
2022-07-29T09:00:07.983Z,27.51
2022-07-29T09:02:43.120Z,27.72
2022-07-29T09:05:13.604Z,27.82
2022-07-29T09:07:42.955Z,30.10
2022-07-29T09:10:09.888Z,30.03
2022-07-29T09:12:38.229Z,29.59
2022-07-29T09:15:05.323Z,31.48
2022-07-29T09:17:49.599Z,32.63
2022-07-29T09:20:24.018Z,33.74
2022-07-29T09:22:53.663Z,33.79
2022-07-29T09:25:37.517Z,33.74
2022-07-29T09:28:17.394Z,35.47
2022-07-29T09:30:53.385Z,35.29
2022-07-29T09:33:22.328Z,36.20
2022-07-29T09:36:00.565Z,37.63
2022-07-29T09:38:28.436Z,35.23
2022-07-29T09:41:01.739Z,34.71
2022-07-29T09:43:33.075Z,34.63
2022-07-29T09:46:13.509Z,36.16
2022-07-29T09:48:40.370Z,36.03
2022-07-29T09:51:20.626Z,36.92
2022-07-29T09:53:48.773Z,38.23
2022-07-29T09:56:15.386Z,37.93
2022-07-29T09:58:41.875Z,37.14
2022-07-29T10:01:08.512Z,36.11
2022-07-29T10:03:51.781Z,34.54
2022-07-29T10:06:18.335Z,34.39
2022-07-29T10:08:44.936Z,35.51
2022-07-29T10:11:19.288Z,33.97
2022-07-29T10:13:48.528Z,35.43
2022-07-29T10:16:16.006Z,36.64
2022-07-29T10:18:44.723Z,37.43
2022-07-29T10:21:34.446Z,36.39
2022-07-29T10:24:01.154Z,34.57
2022-07-29T10:26:27.922Z,32.82
2022-07-29T10:28:54.413Z,32.40
2022-07-29T10:31:30.571Z,32.15
2022-07-29T10:34:19.242Z,32.05
2022-07-29T10:37:04.880Z,31.09
2022-07-29T10:39:50.820Z,31.68
2022-07-29T10:42:33.553Z,31.77
2022-07-29T10:45:02.334Z,31.76
2022-07-29T10:47:29.006Z,31.37
2022-07-29T10:50:04.459Z,30.85
2022-07-29T10:52:51.113Z,30.75
2022-07-29T10:55:31.628Z,30.15
2022-07-29T10:58:19.472Z,29.94
2022-07-29T11:00:48.077Z,29.68
2022-07-29T11:07:06.169Z,29.18
2022-07-29T11:09:37.685Z,29.80
2022-07-29T11:12:25.057Z,29.43
2022-07-29T11:14:54.243Z,28.74
2022-07-29T11:17:23.427Z,28.14
2022-07-29T11:19:52.335Z,28.44
2022-07-29T11:22:36.465Z,28.97
2022-07-29T11:25:50.988Z,28.29
2022-07-29T11:28:22.747Z,28.09
2022-07-29T11:30:53.941Z,27.77
2022-07-29T11:33:55.888Z,27.58
2022-07-29T11:36:28.002Z,27.47
2022-07-29T11:39:27.137Z,27.53
2022-07-29T11:42:32.164Z,27.71
2022-07-29T11:45:41.477Z,27.81
2022-07-29T11:47:57.795Z,27.44
2022-07-29T11:50:37.901Z,27.12
2022-07-29T11:53:13.292Z,26.99
2022-07-29T11:55:51.816Z,26.93
2022-07-29T11:58:25.025Z,26.62
2022-07-29T12:00:52.620Z,26.54
2022-07-29T12:03:32.946Z,26.50
2022-07-29T12:06:02.532Z,26.26
2022-07-29T12:08:29.028Z,26.29
2022-07-29T12:10:55.669Z,26.37
2022-07-29T12:13:22.925Z,26.36
2022-07-29T12:16:03.983Z,26.36
2022-07-29T12:18:30.520Z,26.16
2022-07-29T12:21:03.410Z,26.31
2022-07-29T12:23:34.353Z,26.04
2022-07-29T12:26:04.535Z,25.94
2022-07-29T12:28:32.043Z,25.71
2022-07-29T12:30:58.596Z,25.75
2022-07-29T12:33:30.535Z,25.58
2022-07-29T12:36:17.127Z,25.42
2022-07-29T12:38:44.415Z,25.32
2022-07-29T12:41:11.405Z,25.43
2022-07-29T12:43:37.975Z,25.37
2022-07-29T12:46:14.892Z,25.35
2022-07-29T12:48:43.474Z,25.28
2022-07-29T12:51:11.097Z,25.14
2022-07-29T12:53:38.908Z,25.05
2022-07-29T12:56:20.732Z,25.23
2022-07-29T12:58:53.072Z,25.47
2022-07-29T13:01:21.697Z,25.64
2022-07-29T13:03:56.941Z,25.69
2022-07-29T13:06:34.723Z,25.50
2022-07-29T13:09:06.606Z,25.46
2022-07-29T13:11:35.398Z,25.46
2022-07-29T13:14:06.535Z,25.62
2022-07-29T13:16:33.923Z,25.80
2022-07-29T13:19:05.687Z,25.92
2022-07-29T13:21:32.132Z,26.02
2022-07-29T13:24:02.083Z,26.19
2022-07-29T13:26:28.864Z,26.31
2022-07-29T13:28:56.069Z,26.28
2022-07-29T13:31:23.070Z,26.15
2022-07-29T13:33:49.678Z,25.95
2022-07-29T13:36:16.124Z,26.00
2022-07-29T13:38:42.966Z,26.12
2022-07-29T13:41:09.501Z,26.31
2022-07-29T13:43:37.063Z,26.32
2022-07-29T13:46:03.529Z,26.15
2022-07-29T13:48:30.037Z,26.17
2022-07-29T13:50:57.645Z,26.23
2022-07-29T13:53:26.926Z,26.39
2022-07-29T13:55:54.150Z,26.56
2022-07-29T13:58:20.636Z,26.62
2022-07-29T14:00:47.644Z,26.37
2022-07-29T14:03:14.165Z,26.45
2022-07-29T14:05:40.658Z,26.85
2022-07-29T14:08:07.122Z,27.09
2022-07-29T14:10:33.643Z,27.14
2022-07-29T14:13:00.107Z,27.22
2022-07-29T14:15:26.639Z,27.35
2022-07-29T14:17:53.105Z,27.17
2022-07-29T14:20:20.192Z,27.15
2022-07-29T14:22:46.696Z,27.19
2022-07-29T14:25:14.485Z,27.06
2022-07-29T14:27:41.786Z,27.01
2022-07-29T14:30:09.319Z,26.98
2022-07-29T14:32:35.882Z,26.81
2022-07-29T14:35:02.380Z,26.64
2022-07-29T14:37:28.946Z,26.53
2022-07-29T14:40:08.906Z,26.60
2022-07-29T14:42:35.452Z,26.22
2022-07-29T14:45:01.917Z,26.26
2022-07-29T14:47:28.416Z,26.26
2022-07-29T14:49:54.860Z,26.29
2022-07-29T14:52:21.446Z,26.19
2022-07-29T14:54:47.960Z,26.22
2022-07-29T14:57:14.501Z,26.17
2022-07-29T14:59:41.017Z,26.21
2022-07-29T15:02:07.533Z,26.18
2022-07-29T15:04:34.426Z,26.13
2022-07-29T15:07:01.180Z,26.15
2022-07-29T15:09:27.890Z,26.21
2022-07-29T15:11:54.940Z,26.16
2022-07-29T15:14:21.423Z,26.08
2022-07-29T15:16:48.361Z,26.15
2022-07-29T15:19:15.060Z,26.30
2022-07-29T15:21:48.148Z,26.40
2022-07-29T15:24:16.761Z,26.29
2022-07-29T15:26:43.882Z,26.33
2022-07-29T15:29:10.538Z,26.59
2022-07-29T15:31:37.178Z,26.69
2022-07-29T15:34:06.249Z,26.93
2022-07-29T15:36:51.522Z,26.98
2022-07-29T15:39:19.248Z,27.15
2022-07-29T15:41:45.698Z,27.26
2022-07-29T15:44:12.159Z,27.51
2022-07-29T15:46:57.382Z,27.51
2022-07-29T15:49:24.539Z,27.65
2022-07-29T15:51:50.993Z,27.73
2022-07-29T15:54:17.749Z,27.90
2022-07-29T15:56:44.217Z,28.05
2022-07-29T15:59:10.677Z,28.42
2022-07-29T16:01:49.356Z,28.32
2022-07-29T16:04:17.446Z,28.23
2022-07-29T16:06:46.121Z,28.05
2022-07-29T16:09:13.295Z,27.89
2022-07-29T16:11:39.998Z,27.49
2022-07-29T16:14:06.794Z,27.50
2022-07-29T16:16:35.789Z,27.56
2022-07-29T16:19:02.322Z,27.75
2022-07-29T16:21:28.752Z,27.74
2022-07-29T16:23:55.306Z,27.87
2022-07-29T16:26:21.855Z,27.86
2022-07-29T16:28:48.304Z,27.79
2022-07-29T16:31:15.497Z,27.59
2022-07-29T16:33:55.312Z,27.42
2022-07-29T16:36:22.861Z,27.28
2022-07-29T16:38:51.201Z,27.30
2022-07-29T16:41:17.715Z,27.23
2022-07-29T16:43:44.406Z,27.07
2022-07-29T16:46:13.114Z,26.90
2022-07-29T16:48:45.384Z,26.96
2022-07-29T16:51:12.109Z,26.95
2022-07-29T16:53:41.297Z,26.89
2022-07-29T16:56:08.555Z,26.96
2022-07-29T16:58:43.055Z,26.88
2022-07-29T17:01:10.170Z,26.82
2022-07-29T17:03:59.945Z,26.73
2022-07-29T17:06:27.366Z,26.79
2022-07-29T17:08:53.790Z,26.84
2022-07-29T17:11:20.314Z,26.86
2022-07-29T17:13:46.881Z,26.70
2022-07-29T17:16:13.391Z,26.55
2022-07-29T17:18:39.894Z,26.54
2022-07-29T17:21:06.316Z,26.51
2022-07-29T17:23:32.796Z,26.47
2022-07-29T17:25:59.309Z,26.49
2022-07-29T17:28:25.740Z,26.45
2022-07-29T17:30:52.179Z,26.32
2022-07-29T17:33:18.755Z,26.35
2022-07-29T17:36:03.544Z,26.34
2022-07-29T17:38:30.068Z,26.33
2022-07-29T17:40:56.640Z,26.37
2022-07-29T17:43:23.094Z,26.35
2022-07-29T17:45:50.881Z,26.34
2022-07-29T17:48:18.831Z,26.28
2022-07-29T17:50:46.036Z,26.31
2022-07-29T17:54:30.491Z,26.24
2022-07-29T17:56:57.337Z,26.16
2022-07-29T17:59:23.999Z,26.08
2022-07-29T18:01:50.560Z,25.98
2022-07-29T18:04:20.873Z,25.92
2022-07-29T18:06:47.353Z,25.88
2022-07-29T18:09:13.915Z,25.89
2022-07-29T18:11:40.600Z,25.86
2022-07-29T18:14:10.962Z,25.92
2022-07-29T18:16:38.387Z,25.85
2022-07-29T18:19:05.090Z,25.88
2022-07-29T18:21:43.536Z,25.85
2022-07-29T18:24:17.989Z,25.85
2022-07-29T18:26:44.561Z,25.76
2022-07-29T18:29:11.012Z,25.71
2022-07-29T18:31:37.629Z,25.69
2022-07-29T18:34:04.166Z,25.57
2022-07-29T18:36:30.809Z,25.55
2022-07-29T18:38:57.249Z,25.50
2022-07-29T18:41:23.712Z,25.46
2022-07-29T18:43:50.139Z,25.48
2022-07-29T18:46:16.627Z,25.38
2022-07-29T18:48:43.110Z,25.38
2022-07-29T18:51:09.712Z,25.37
2022-07-29T18:53:37.051Z,25.38
2022-07-29T18:56:03.881Z,25.32
2022-07-29T18:58:30.399Z,25.25
2022-07-29T19:00:56.838Z,25.34
2022-07-29T19:03:23.277Z,25.37
2022-07-29T19:05:49.930Z,25.39
2022-07-29T19:08:16.359Z,25.42
2022-07-29T19:10:42.896Z,25.37
2022-07-29T19:13:09.632Z,25.36
2022-07-29T19:15:39.995Z,25.12
2022-07-29T19:18:07.121Z,25.18
2022-07-29T19:20:33.777Z,25.29
2022-07-29T19:23:00.221Z,25.24
2022-07-29T19:25:26.678Z,25.21
2022-07-29T19:27:53.109Z,25.08
2022-07-29T19:30:19.777Z,25.06
2022-07-29T19:32:46.441Z,25.19
2022-07-29T19:35:25.187Z,25.12
2022-07-29T19:37:52.632Z,25.09
2022-07-29T19:40:20.020Z,25.11
2022-07-29T19:42:48.190Z,25.02
2022-07-29T19:45:14.683Z,25.10
2022-07-29T19:47:41.148Z,25.05
2022-07-29T19:50:08.439Z,25.11
2022-07-29T19:52:35.170Z,25.18
2022-07-29T19:55:07.071Z,25.09
2022-07-29T19:57:40.966Z,25.04
2022-07-29T20:00:11.139Z,24.86
2022-07-29T20:02:38.734Z,24.80
2022-07-29T20:05:06.036Z,24.82
2022-07-29T20:07:32.519Z,24.69
2022-07-29T20:09:59.312Z,24.71
2022-07-29T20:12:25.823Z,24.63
2022-07-29T20:14:52.893Z,24.50
2022-07-29T20:17:22.039Z,24.45
2022-07-29T20:19:49.795Z,24.40
2022-07-29T20:22:21.067Z,24.38
2022-07-29T20:24:48.335Z,24.23
2022-07-29T20:27:14.822Z,24.10
2022-07-29T20:29:41.274Z,24.06
2022-07-29T20:32:07.825Z,24.05
2022-07-29T20:34:34.378Z,24.01
2022-07-29T20:37:02.698Z,23.81
2022-07-29T20:39:29.452Z,23.88
2022-07-29T20:41:56.142Z,23.98
2022-07-29T20:44:24.204Z,23.92
2022-07-29T20:46:50.681Z,23.73
2022-07-29T20:49:17.363Z,23.59
2022-07-29T20:51:44.256Z,23.61
2022-07-29T20:54:11.146Z,23.51
2022-07-29T20:56:38.220Z,23.46
2022-07-29T20:59:04.737Z,23.46
2022-07-29T21:01:31.215Z,23.45
2022-07-29T21:03:57.741Z,23.35
2022-07-29T21:06:24.214Z,23.27
2022-07-29T21:08:50.658Z,23.08
2022-07-29T21:11:17.676Z,23.08
2022-07-29T21:14:04.193Z,22.99
2022-07-29T21:16:33.326Z,22.99
2022-07-29T21:18:59.864Z,22.90
2022-07-29T21:21:26.885Z,22.91
2022-07-29T21:23:53.336Z,22.91
2022-07-29T21:26:19.911Z,22.89
2022-07-29T21:28:46.387Z,22.84
2022-07-29T21:31:16.968Z,22.83
2022-07-29T21:33:46.319Z,22.71
2022-07-29T21:36:46.805Z,22.70
2022-07-29T21:39:06.714Z,22.59
2022-07-29T21:41:33.609Z,22.64
2022-07-29T21:44:00.067Z,22.52
2022-07-29T21:46:28.104Z,22.60
2022-07-29T21:48:54.624Z,22.38
2022-07-29T21:51:21.164Z,22.56
2022-07-29T21:53:47.622Z,22.47
2022-07-29T21:56:14.967Z,22.40
2022-07-29T21:58:42.008Z,22.40
2022-07-29T22:01:08.483Z,22.36
2022-07-29T22:03:35.027Z,22.36
2022-07-29T22:06:01.521Z,22.33
2022-07-29T22:08:27.936Z,22.32
2022-07-29T22:10:54.381Z,22.34
2022-07-29T22:13:20.879Z,22.24
2022-07-29T22:15:47.450Z,22.26
2022-07-29T22:18:20.458Z,22.17
2022-07-29T22:20:47.823Z,22.02
2022-07-29T22:23:14.289Z,22.12
2022-07-29T22:25:40.748Z,22.05
2022-07-29T22:28:07.218Z,22.00
2022-07-29T22:30:33.719Z,22.03
2022-07-29T22:33:00.322Z,22.03
2022-07-29T22:35:26.862Z,22.14
2022-07-29T22:37:54.153Z,22.14
2022-07-29T22:40:20.722Z,22.18
2022-07-29T22:42:47.256Z,22.15
2022-07-29T22:45:13.788Z,21.98
2022-07-29T22:47:48.133Z,21.98
2022-07-29T22:50:15.614Z,21.80
2022-07-29T22:52:42.193Z,21.74
2022-07-29T22:55:08.833Z,21.82
2022-07-29T22:57:35.451Z,21.71
2022-07-29T23:00:02.415Z,21.73
2022-07-29T23:02:29.432Z,21.63
2022-07-29T23:04:55.990Z,21.69
2022-07-29T23:07:23.278Z,21.59
2022-07-29T23:09:49.717Z,21.57
2022-07-29T23:12:16.151Z,21.52
2022-07-29T23:14:42.621Z,21.41
2022-07-29T23:17:09.135Z,21.38
2022-07-29T23:19:35.638Z,21.44
2022-07-29T23:22:02.080Z,21.18
2022-07-29T23:24:28.549Z,21.08
2022-07-29T23:26:55.049Z,21.31
2022-07-29T23:29:21.593Z,21.28
2022-07-29T23:31:48.512Z,21.27
2022-07-29T23:34:15.404Z,21.25
2022-07-29T23:36:42.410Z,21.08
2022-07-29T23:39:11.336Z,21.12
2022-07-29T23:41:38.004Z,21.09
2022-07-29T23:44:04.998Z,20.94
2022-07-29T23:46:31.487Z,20.79
2022-07-29T23:48:58.021Z,20.78
2022-07-29T23:51:24.895Z,20.83
2022-07-29T23:53:53.663Z,20.90
2022-07-29T23:56:21.115Z,20.91
2022-07-29T23:58:47.592Z,20.73
